createdAt,value
2018-12-04T00:00:53.652Z,6.60
2018-12-04T00:03:24.227Z,6.50
2018-12-04T00:05:54.613Z,6.40
2018-12-04T00:08:25.379Z,6.30
2018-12-04T00:10:55.932Z,6.40
2018-12-04T00:13:26.427Z,6.30
2018-12-04T00:15:56.978Z,6.30
2018-12-04T00:18:27.477Z,6.30
2018-12-04T00:20:57.969Z,6.20
2018-12-04T00:23:28.512Z,6.20
2018-12-04T00:25:58.948Z,6.10
2018-12-04T00:28:29.620Z,6.00
2018-12-04T00:31:00.098Z,6.00
2018-12-04T00:33:30.569Z,6.00
2018-12-04T00:36:01.031Z,6.10
2018-12-04T00:38:31.451Z,6.00
2018-12-04T00:41:09.037Z,6.00
2018-12-04T00:43:39.778Z,5.90
2018-12-04T00:46:10.380Z,5.90
2018-12-04T00:48:40.896Z,5.80
2018-12-04T00:51:11.524Z,5.80
2018-12-04T00:53:42.020Z,5.90
2018-12-04T00:56:12.646Z,5.90
2018-12-04T00:58:43.185Z,5.90
2018-12-04T01:01:13.707Z,5.90
2018-12-04T01:03:44.178Z,5.90
2018-12-04T01:06:14.719Z,5.90
2018-12-04T01:08:45.653Z,5.80
2018-12-04T01:11:16.057Z,5.70
2018-12-04T01:13:46.719Z,5.70
2018-12-04T01:16:17.255Z,5.70
2018-12-04T01:18:47.976Z,5.80
2018-12-04T01:21:18.711Z,5.70
2018-12-04T01:23:49.542Z,5.70
2018-12-04T01:26:19.989Z,5.60
2018-12-04T01:28:50.955Z,5.60
2018-12-04T01:31:21.525Z,5.60
2018-12-04T01:33:51.984Z,5.50
2018-12-04T01:36:22.588Z,5.60
2018-12-04T01:38:53.158Z,5.60
2018-12-04T01:41:23.640Z,5.70
2018-12-04T01:43:54.328Z,5.60
2018-12-04T01:46:25.269Z,5.60
2018-12-04T01:48:55.751Z,5.50
2018-12-04T01:51:26.308Z,5.50
2018-12-04T01:53:56.843Z,5.40
2018-12-04T01:56:27.396Z,5.30
2018-12-04T01:58:57.838Z,5.30
2018-12-04T02:01:28.428Z,5.20
2018-12-04T02:04:00.920Z,5.20
2018-12-04T02:06:31.403Z,5.10
2018-12-04T02:09:01.892Z,5.10
2018-12-04T02:11:34.495Z,5.20
2018-12-04T02:14:05.064Z,5.30
2018-12-04T02:16:35.519Z,5.30
2018-12-04T02:19:05.989Z,5.40
2018-12-04T02:21:36.409Z,5.40
2018-12-04T02:24:07.419Z,5.40
2018-12-04T02:26:37.930Z,5.50
2018-12-04T02:29:08.658Z,5.50
2018-12-04T02:31:39.353Z,5.40
2018-12-04T02:34:09.941Z,5.40
2018-12-04T02:36:40.372Z,5.50
2018-12-04T02:39:10.902Z,5.50
2018-12-04T02:41:41.386Z,5.60
2018-12-04T02:44:12.101Z,5.60
2018-12-04T02:46:42.468Z,5.70
2018-12-04T02:49:13.236Z,5.60
2018-12-04T02:51:43.958Z,5.70
2018-12-04T02:54:14.412Z,5.70
2018-12-04T02:56:45.279Z,5.70
2018-12-04T02:59:15.816Z,5.80
2018-12-04T03:01:46.233Z,5.80
2018-12-04T03:04:16.931Z,5.90
2018-12-04T03:06:47.333Z,5.90
2018-12-04T03:09:17.878Z,6.00
2018-12-04T03:11:48.639Z,6.10
2018-12-04T03:14:19.091Z,6.30
2018-12-04T03:16:49.528Z,6.30
2018-12-04T03:19:20.232Z,6.40
2018-12-04T03:21:50.625Z,6.30
2018-12-04T03:24:21.267Z,6.40
2018-12-04T03:26:51.993Z,6.40
2018-12-04T03:29:22.499Z,6.40
2018-12-04T03:31:52.992Z,6.30
2018-12-04T03:34:23.581Z,6.30
2018-12-04T03:36:53.942Z,6.40
2018-12-04T03:39:24.427Z,6.40
2018-12-04T03:41:54.867Z,6.40
2018-12-04T03:44:25.343Z,6.50
2018-12-04T03:46:55.720Z,6.50
2018-12-04T03:49:26.205Z,6.50
2018-12-04T03:51:56.649Z,6.60
2018-12-04T03:54:27.315Z,6.60
2018-12-04T03:56:57.814Z,6.70
2018-12-04T03:59:28.256Z,6.70
2018-12-04T04:02:05.440Z,6.70
2018-12-04T04:04:35.966Z,6.70
2018-12-04T04:07:06.491Z,6.70
2018-12-04T04:09:37.338Z,6.70
2018-12-04T04:12:10.224Z,6.70
2018-12-04T04:14:40.684Z,6.70
2018-12-04T04:17:11.160Z,6.80
2018-12-04T04:19:41.686Z,6.80
2018-12-04T04:22:12.237Z,6.80
2018-12-04T04:24:42.830Z,6.80
2018-12-04T04:27:13.751Z,6.90
2018-12-04T04:29:44.211Z,6.80
2018-12-04T04:32:14.745Z,6.90
2018-12-04T04:34:45.457Z,6.90
2018-12-04T04:37:15.956Z,6.90
2018-12-04T04:39:46.376Z,7.00
2018-12-04T04:42:16.819Z,7.00
2018-12-04T04:44:47.348Z,7.00
2018-12-04T04:47:17.744Z,7.10
2018-12-04T04:49:48.300Z,7.10
2018-12-04T04:52:18.768Z,7.10
2018-12-04T04:54:49.196Z,7.10
2018-12-04T04:57:19.946Z,7.10
2018-12-04T04:59:50.620Z,7.10
2018-12-04T05:02:21.184Z,7.20
2018-12-04T05:04:51.997Z,7.20
2018-12-04T05:07:22.548Z,7.20
2018-12-04T05:09:53.131Z,7.30
2018-12-04T05:12:23.704Z,7.30
2018-12-04T05:14:54.516Z,7.30
2018-12-04T05:17:25.239Z,7.30
2018-12-04T05:19:55.803Z,7.40
2018-12-04T05:22:26.349Z,7.40
2018-12-04T05:24:56.763Z,7.40
2018-12-04T05:27:27.261Z,7.40
2018-12-04T05:29:57.684Z,7.50
2018-12-04T05:32:28.232Z,7.50
2018-12-04T05:34:59.014Z,7.50
2018-12-04T05:37:29.707Z,7.50
2018-12-04T05:40:00.411Z,7.50
2018-12-04T05:42:31.111Z,7.50
2018-12-04T05:45:01.725Z,7.60
2018-12-04T05:47:32.598Z,7.60
2018-12-04T05:50:03.161Z,7.70
2018-12-04T05:52:33.689Z,7.80
2018-12-04T05:55:04.210Z,7.80
2018-12-04T05:57:34.732Z,7.80
2018-12-04T06:00:06.407Z,7.80
2018-12-04T06:02:36.939Z,7.90
2018-12-04T06:05:07.591Z,7.90
2018-12-04T06:07:38.353Z,8.00
2018-12-04T06:10:08.824Z,8.00
2018-12-04T06:12:39.153Z,8.10
2018-12-04T06:15:10.110Z,8.20
2018-12-04T06:17:40.656Z,8.30
2018-12-04T06:20:11.284Z,8.50
2018-12-04T06:22:41.816Z,8.50
2018-12-04T06:25:12.302Z,8.70
2018-12-04T06:27:42.851Z,8.80
2018-12-04T06:30:13.224Z,8.90
2018-12-04T06:32:44.142Z,9.00
2018-12-04T06:35:14.753Z,9.10
2018-12-04T06:37:45.350Z,9.10
2018-12-04T06:40:15.828Z,9.20
2018-12-04T06:42:46.438Z,9.20
2018-12-04T06:45:16.970Z,9.20
2018-12-04T06:47:47.628Z,9.30
2018-12-04T06:50:18.166Z,9.30
2018-12-04T06:52:49.898Z,9.30
2018-12-04T06:55:20.425Z,9.30
2018-12-04T06:57:59.131Z,9.40
2018-12-04T07:00:29.984Z,9.50
2018-12-04T07:03:00.552Z,9.80
2018-12-04T07:05:32.040Z,9.90
2018-12-04T07:08:02.714Z,10.10
2018-12-04T07:10:33.594Z,10.20
2018-12-04T07:13:04.158Z,10.40
2018-12-04T07:15:34.661Z,10.60
2018-12-04T07:18:05.332Z,10.60
2018-12-04T07:20:36.329Z,10.60
2018-12-04T07:23:06.216Z,10.50
2018-12-04T07:25:36.736Z,10.30
2018-12-04T07:28:07.572Z,10.30
2018-12-04T07:30:37.956Z,10.30
2018-12-04T07:33:09.488Z,10.30
2018-12-04T07:35:40.160Z,10.40
2018-12-04T07:38:11.367Z,10.50
2018-12-04T07:40:42.161Z,10.60
2018-12-04T07:43:12.722Z,10.60
2018-12-04T07:45:43.163Z,10.70
2018-12-04T07:48:13.765Z,10.60
2018-12-04T07:50:44.355Z,10.60
2018-12-04T07:53:14.907Z,10.60
2018-12-04T07:55:46.317Z,10.70
2018-12-04T07:58:16.901Z,10.70
2018-12-04T08:00:47.413Z,10.80
2018-12-04T08:03:18.183Z,10.90
2018-12-04T08:05:48.693Z,11.10
2018-12-04T08:08:19.208Z,11.20
2018-12-04T08:10:49.722Z,11.40
2018-12-04T08:13:20.267Z,11.50
2018-12-04T08:15:50.729Z,11.40
2018-12-04T08:18:21.421Z,11.50
2018-12-04T08:20:52.146Z,11.60
2018-12-04T08:23:22.645Z,11.60
2018-12-04T08:25:53.112Z,11.70
2018-12-04T08:28:23.735Z,11.70
2018-12-04T08:30:54.529Z,11.80
2018-12-04T08:33:25.042Z,11.80
2018-12-04T08:35:55.610Z,11.80
2018-12-04T08:38:26.052Z,11.90
2018-12-04T08:40:56.550Z,12.00
2018-12-04T08:43:27.057Z,12.10
2018-12-04T08:45:57.851Z,12.00
2018-12-04T08:48:28.393Z,12.10
2018-12-04T08:50:58.880Z,12.20
2018-12-04T08:53:29.459Z,12.40
2018-12-04T08:56:00.069Z,12.50
2018-12-04T08:58:30.662Z,12.60
2018-12-04T09:01:01.338Z,12.60
2018-12-04T09:03:32.132Z,12.60
2018-12-04T09:06:05.171Z,12.60
2018-12-04T09:08:35.732Z,12.60
2018-12-04T09:11:06.535Z,12.60
2018-12-04T09:13:37.046Z,12.50
2018-12-04T09:16:07.778Z,12.60
2018-12-04T09:18:38.384Z,12.50
2018-12-04T09:21:08.989Z,12.70
2018-12-04T09:23:39.461Z,12.70
2018-12-04T09:26:10.216Z,12.80
2018-12-04T09:28:40.911Z,12.80
2018-12-04T09:31:11.592Z,12.90
2018-12-04T09:33:42.109Z,13.00
2018-12-04T09:36:12.709Z,13.10
2018-12-04T09:38:43.229Z,13.20
2018-12-04T09:41:13.904Z,13.40
2018-12-04T09:43:44.472Z,13.50
2018-12-04T09:46:14.990Z,13.60
2018-12-04T09:48:45.702Z,13.90
2018-12-04T09:51:16.262Z,14.20
2018-12-04T09:53:51.916Z,14.60
2018-12-04T09:56:19.678Z,15.10
2018-12-04T09:58:50.532Z,15.40
2018-12-04T10:01:20.947Z,15.80
2018-12-04T10:03:51.473Z,16.20
2018-12-04T10:06:21.881Z,16.10
2018-12-04T10:08:52.438Z,16.20
2018-12-04T10:11:22.988Z,16.00
2018-12-04T10:13:53.804Z,15.80
2018-12-04T10:16:24.441Z,15.70
2018-12-04T10:18:55.282Z,15.70
2018-12-04T10:21:25.894Z,15.60
2018-12-04T10:23:56.311Z,15.50
2018-12-04T10:26:27.806Z,15.50
2018-12-04T10:28:58.728Z,15.20
2018-12-04T10:31:29.408Z,15.20
2018-12-04T10:33:59.943Z,15.00
2018-12-04T10:36:30.526Z,15.00
2018-12-04T10:39:01.101Z,14.90
2018-12-04T10:41:31.575Z,14.80
2018-12-04T10:44:02.125Z,14.70
2018-12-04T10:46:32.580Z,14.60
2018-12-04T10:49:03.035Z,14.60
2018-12-04T10:51:33.888Z,14.70
2018-12-04T10:54:04.358Z,14.60
2018-12-04T10:56:34.902Z,14.50
2018-12-04T10:59:05.621Z,14.40
2018-12-04T11:01:41.711Z,14.40
2018-12-04T11:04:12.555Z,14.30
2018-12-04T11:06:44.552Z,14.40
2018-12-04T11:09:15.097Z,14.40
2018-12-04T11:11:45.688Z,14.40
2018-12-04T11:14:16.439Z,14.30
2018-12-04T11:16:47.005Z,14.20
2018-12-04T11:19:19.796Z,14.10
2018-12-04T11:21:50.304Z,14.10
2018-12-04T11:24:20.676Z,14.10
2018-12-04T11:26:51.347Z,14.10
2018-12-04T11:29:22.335Z,14.10
2018-12-04T11:31:52.922Z,14.00
2018-12-04T11:34:23.263Z,14.00
2018-12-04T11:36:53.864Z,14.00
2018-12-04T11:39:24.347Z,13.90
2018-12-04T11:41:55.067Z,14.00
2018-12-04T11:44:25.636Z,14.00
2018-12-04T11:46:56.141Z,14.10
2018-12-04T11:49:26.648Z,14.00
2018-12-04T11:51:57.511Z,14.00
2018-12-04T11:54:27.996Z,14.20
2018-12-04T11:56:58.503Z,14.30
2018-12-04T11:59:29.049Z,14.40
2018-12-04T12:01:59.798Z,14.50
2018-12-04T12:04:30.354Z,14.50
2018-12-04T12:07:03.118Z,14.40
2018-12-04T12:09:33.544Z,14.50
2018-12-04T12:12:04.312Z,14.50
2018-12-04T12:14:34.804Z,14.50
2018-12-04T12:17:05.549Z,14.50
2018-12-04T12:19:36.349Z,14.50
2018-12-04T12:22:06.840Z,14.50
2018-12-04T12:24:37.544Z,14.50
2018-12-04T12:27:08.068Z,14.40
2018-12-04T12:29:38.867Z,14.50
2018-12-04T12:32:09.507Z,14.40
2018-12-04T12:34:40.013Z,14.30
2018-12-04T12:37:10.599Z,14.20
2018-12-04T12:39:41.168Z,14.20
2018-12-04T12:42:12.869Z,14.10
2018-12-04T12:44:43.454Z,14.00
2018-12-04T12:47:14.011Z,14.00
2018-12-04T12:49:44.777Z,14.00
2018-12-04T12:52:17.397Z,14.00
2018-12-04T12:54:48.026Z,14.00
2018-12-04T12:57:18.631Z,13.90
2018-12-04T12:59:49.268Z,13.90
2018-12-04T13:02:19.899Z,13.90
2018-12-04T13:04:50.426Z,13.80
2018-12-04T13:07:20.989Z,13.80
2018-12-04T13:09:51.500Z,13.80
2018-12-04T13:12:22.074Z,13.80
2018-12-04T13:14:52.636Z,13.70
2018-12-04T13:17:23.124Z,13.70
2018-12-04T13:19:53.610Z,13.60
2018-12-04T13:22:24.084Z,13.60
2018-12-04T13:24:54.935Z,13.60
2018-12-04T13:27:25.556Z,13.60
2018-12-04T13:29:56.111Z,13.50
2018-12-04T13:32:26.881Z,13.50
2018-12-04T13:34:57.503Z,13.40
2018-12-04T13:37:28.406Z,13.40
2018-12-04T13:39:59.513Z,13.40
2018-12-04T13:42:30.146Z,13.40
2018-12-04T13:45:00.626Z,13.30
2018-12-04T13:47:31.245Z,13.30
2018-12-04T13:50:01.817Z,13.20
2018-12-04T13:52:32.312Z,13.20
2018-12-04T13:55:02.915Z,13.10
2018-12-04T13:57:33.443Z,13.10
2018-12-04T14:00:04.366Z,13.10
2018-12-04T14:02:35.132Z,13.00
2018-12-04T14:05:08.103Z,13.00
2018-12-04T14:07:38.906Z,13.00
2018-12-04T14:10:11.384Z,13.00
2018-12-04T14:12:41.836Z,13.00
2018-12-04T14:15:12.401Z,13.00
2018-12-04T14:17:42.878Z,13.00
2018-12-04T14:20:13.502Z,13.00
2018-12-04T14:22:44.072Z,12.90
2018-12-04T14:25:14.621Z,12.90
2018-12-04T14:27:49.095Z,12.90
2018-12-04T14:30:18.121Z,12.90
2018-12-04T14:32:48.897Z,12.80
2018-12-04T14:35:19.376Z,12.80
2018-12-04T14:37:49.984Z,12.80
2018-12-04T14:40:20.670Z,12.80
2018-12-04T14:42:55.374Z,12.80
2018-12-04T14:45:25.907Z,12.70
2018-12-04T14:47:56.595Z,12.70
2018-12-04T14:50:27.078Z,12.70
2018-12-04T14:52:57.679Z,12.60
2018-12-04T14:55:28.534Z,12.60
2018-12-04T14:57:59.208Z,12.50
2018-12-04T15:00:29.925Z,12.50
2018-12-04T15:03:00.511Z,12.50
2018-12-04T15:05:31.555Z,12.50
2018-12-04T15:08:02.158Z,12.40
2018-12-04T15:10:33.012Z,12.40
2018-12-04T15:13:03.480Z,12.40
2018-12-04T15:15:34.261Z,12.40
2018-12-04T15:18:04.808Z,12.40
2018-12-04T15:20:35.313Z,12.30
2018-12-04T15:23:05.995Z,12.30
2018-12-04T15:25:36.544Z,12.30
2018-12-04T15:28:08.971Z,12.30
2018-12-04T15:30:39.864Z,12.30
2018-12-04T15:33:10.408Z,12.20
2018-12-04T15:35:40.863Z,12.20
2018-12-04T15:38:11.593Z,12.20
2018-12-04T15:40:42.425Z,12.10
2018-12-04T15:43:13.286Z,12.10
2018-12-04T15:45:43.847Z,12.00
2018-12-04T15:48:17.237Z,12.00
2018-12-04T15:50:48.000Z,12.00
2018-12-04T15:53:19.600Z,12.00
2018-12-04T15:55:50.170Z,12.00
2018-12-04T15:58:20.781Z,11.90
2018-12-04T16:00:51.642Z,11.90
2018-12-04T16:03:22.262Z,11.90
2018-12-04T16:05:52.708Z,11.90
2018-12-04T16:08:23.374Z,11.80
2018-12-04T18:50:32.557Z,10.50
2018-12-04T18:53:03.524Z,10.80
2018-12-04T18:55:34.239Z,10.90
2018-12-04T18:58:05.370Z,10.90
2018-12-04T19:00:36.658Z,10.90
2018-12-04T19:03:07.119Z,10.90
2018-12-04T19:05:38.470Z,10.90
2018-12-04T19:08:09.490Z,10.90
2018-12-04T19:10:40.234Z,10.80
2018-12-04T19:13:10.937Z,10.70
2018-12-04T19:15:41.732Z,10.70
2018-12-04T19:18:12.218Z,10.60
2018-12-04T19:20:43.774Z,10.70
2018-12-04T19:23:14.592Z,10.70
2018-12-04T19:25:45.139Z,10.70
2018-12-04T19:28:15.854Z,10.70
2018-12-04T19:30:46.570Z,10.70
2018-12-04T19:33:18.283Z,10.70
2018-12-04T19:35:48.733Z,10.70
2018-12-04T19:38:19.394Z,10.70
2018-12-04T19:40:50.238Z,10.70
2018-12-04T19:43:20.861Z,10.70
2018-12-04T19:45:51.815Z,10.70
2018-12-04T19:48:22.399Z,10.60
2018-12-04T19:50:53.175Z,10.60
2018-12-04T19:53:24.501Z,10.60
2018-12-04T19:55:55.030Z,10.50
2018-12-04T19:58:25.440Z,10.50
2018-12-04T20:00:57.179Z,10.40
2018-12-04T20:03:27.893Z,10.30
2018-12-04T20:05:58.664Z,10.40
2018-12-04T20:08:33.498Z,10.40
2018-12-04T20:11:04.255Z,10.40
2018-12-04T20:13:35.164Z,10.30
2018-12-04T20:16:06.298Z,10.30
2018-12-04T20:18:36.846Z,10.20
2018-12-04T20:21:07.488Z,10.20
2018-12-04T20:23:38.133Z,10.20
2018-12-04T20:26:08.816Z,10.20
2018-12-04T20:28:39.465Z,10.20
2018-12-04T20:31:10.112Z,10.20
2018-12-04T20:33:40.764Z,10.20
2018-12-04T20:36:11.264Z,10.20
2018-12-04T20:38:42.711Z,10.20
2018-12-04T20:41:13.237Z,10.20
2018-12-04T20:43:43.943Z,10.20
2018-12-04T20:46:14.592Z,10.20
2018-12-04T20:48:45.664Z,10.20
2018-12-04T20:51:16.222Z,10.20
2018-12-04T20:53:46.706Z,10.20
2018-12-04T20:56:17.754Z,10.10
2018-12-04T20:58:48.809Z,10.20
2018-12-04T21:01:19.826Z,10.20
2018-12-04T21:03:50.643Z,10.20
2018-12-04T21:06:21.161Z,10.20
2018-12-04T21:08:51.964Z,10.30
2018-12-04T21:11:22.727Z,10.30
2018-12-04T21:13:54.265Z,10.30
2018-12-04T21:16:25.119Z,10.20
2018-12-04T21:18:56.104Z,10.20
2018-12-04T21:21:26.899Z,10.20
2018-12-04T21:23:57.672Z,10.20
2018-12-04T21:26:28.188Z,10.20
2018-12-04T21:29:03.964Z,10.20
2018-12-04T21:31:40.010Z,10.30
2018-12-04T21:34:15.558Z,10.30
2018-12-04T21:36:51.180Z,10.30
2018-12-04T21:39:40.360Z,10.30
2018-12-04T21:42:16.040Z,10.30
2018-12-04T21:44:51.561Z,10.40
2018-12-04T21:47:27.121Z,10.40
2018-12-04T21:49:57.666Z,10.30
2018-12-04T21:52:28.330Z,10.30
2018-12-04T21:54:59.005Z,10.30
2018-12-04T21:57:29.774Z,10.30
2018-12-04T22:00:00.371Z,10.40
2018-12-04T22:02:31.297Z,10.30
2018-12-04T22:05:02.055Z,10.30
2018-12-04T22:07:33.713Z,10.30
2018-12-04T22:10:04.297Z,10.30
2018-12-04T22:12:35.126Z,10.30
2018-12-04T22:15:05.950Z,10.30
2018-12-04T22:17:36.464Z,10.30
2018-12-04T22:20:07.513Z,10.30
2018-12-04T22:22:38.252Z,10.30
2018-12-04T22:25:08.817Z,10.20
2018-12-04T22:27:39.591Z,10.20
2018-12-04T22:30:10.534Z,10.20
2018-12-04T22:32:40.999Z,10.20
2018-12-04T22:35:12.067Z,10.20
2018-12-04T22:37:42.734Z,10.30
2018-12-04T22:40:13.612Z,10.30
2018-12-04T22:42:44.337Z,10.30
2018-12-04T22:45:20.309Z,10.30
2018-12-04T22:47:51.042Z,10.30
2018-12-04T22:50:22.062Z,10.40
2018-12-04T22:52:52.712Z,10.40
2018-12-04T22:55:23.857Z,10.30
2018-12-04T22:57:54.459Z,10.30
2018-12-04T23:00:33.785Z,10.30
2018-12-04T23:03:04.395Z,10.30
2018-12-04T23:05:34.967Z,10.30
2018-12-04T23:08:06.032Z,10.20
2018-12-04T23:10:36.602Z,10.20
2018-12-04T23:13:07.308Z,10.20
2018-12-04T23:15:37.814Z,10.10
2018-12-04T23:18:08.442Z,10.10
2018-12-04T23:20:39.140Z,10.10
2018-12-04T23:23:09.861Z,10.10
2018-12-04T23:25:40.376Z,10.10
2018-12-04T23:28:11.001Z,10.10
2018-12-04T23:30:41.691Z,10.10
2018-12-04T23:33:12.236Z,10.10
2018-12-04T23:35:42.888Z,10.10
2018-12-04T23:38:13.587Z,10.10
2018-12-04T23:40:44.791Z,10.00
2018-12-04T23:43:15.376Z,10.00
2018-12-04T23:45:45.726Z,10.00
2018-12-04T23:48:16.232Z,10.00
2018-12-04T23:50:46.825Z,10.00
2018-12-04T23:53:17.642Z,10.00
2018-12-04T23:55:48.402Z,9.90
2018-12-04T23:58:19.025Z,9.90
